createdAt,value
2019-05-06T05:33:57.623Z,11.20
2019-05-06T05:34:39.859Z,11.43
2019-05-06T05:35:09.477Z,11.07
2019-05-06T05:35:44.516Z,11.53
2019-05-06T05:36:20.095Z,11.33
2019-05-06T05:36:55.143Z,11.20
2019-05-06T05:37:32.701Z,11.50
2019-05-06T05:38:07.495Z,11.17
2019-05-06T05:38:43.487Z,11.43
2019-05-06T05:39:18.861Z,10.93
2019-05-06T05:39:54.009Z,11.47
2019-05-06T05:40:29.357Z,11.17
2019-05-06T05:41:04.487Z,11.57
2019-05-06T05:41:42.757Z,11.33
2019-05-06T05:42:29.222Z,11.40
2019-05-06T05:43:18.362Z,11.23
2019-05-06T05:44:12.506Z,10.50
2019-05-06T05:44:48.381Z,11.50
2019-05-06T05:45:23.451Z,11.37
2019-05-06T05:45:58.791Z,11.30
2019-05-06T05:46:33.870Z,11.43
2019-05-06T05:47:09.404Z,11.30
2019-05-06T05:47:44.770Z,11.40
2019-05-06T05:48:42.342Z,11.10
2019-05-06T05:49:27.752Z,10.80
2019-05-06T05:50:15.175Z,11.40
2019-05-06T05:50:52.513Z,10.80
2019-05-06T05:51:26.974Z,11.50
2019-05-06T05:52:03.370Z,10.97
2019-05-06T05:52:38.862Z,10.43
2019-05-06T05:53:13.914Z,11.10
2019-05-06T05:53:49.043Z,10.77
2019-05-06T05:54:24.378Z,11.60
2019-05-06T05:54:59.428Z,11.30
2019-05-06T05:55:34.480Z,11.47
2019-05-06T05:56:09.528Z,10.90
2019-05-06T05:56:45.216Z,11.47
2019-05-06T05:57:20.265Z,10.47
2019-05-06T05:57:55.300Z,11.43
2019-05-06T05:58:32.886Z,10.90
2019-05-06T05:59:07.088Z,10.80
2019-05-06T05:59:42.441Z,11.33
2019-05-06T06:00:17.967Z,10.90
2019-05-06T06:00:53.006Z,11.77
2019-05-06T06:01:28.329Z,11.00
2019-05-06T06:02:03.980Z,11.37
2019-05-06T06:02:39.178Z,10.30
2019-05-06T06:03:14.219Z,12.23
2019-05-06T06:03:49.594Z,12.27
2019-05-06T06:04:24.979Z,12.17
2019-05-06T06:05:02.330Z,11.23
2019-05-06T06:05:37.059Z,11.20
2019-05-06T06:06:12.648Z,10.63
2019-05-06T06:06:48.211Z,11.43
2019-05-06T06:07:23.256Z,11.20
2019-05-06T06:07:58.306Z,11.03
2019-05-06T06:08:36.464Z,11.33
2019-05-06T06:09:12.583Z,10.93
2019-05-06T06:09:54.671Z,10.40
2019-05-06T06:10:47.347Z,11.00
2019-05-06T06:11:26.729Z,11.07
2019-05-06T06:12:04.595Z,11.10
2019-05-06T06:12:39.803Z,11.70
2019-05-06T06:13:15.114Z,10.83
2019-05-06T06:13:52.166Z,10.47
2019-05-06T06:14:55.730Z,11.30
2019-05-06T06:15:53.699Z,11.10
2019-05-06T06:16:39.184Z,11.27
2019-05-06T06:17:32.620Z,10.97
2019-05-06T06:18:25.027Z,10.90
2019-05-06T06:19:12.559Z,11.33
2019-05-06T06:19:53.423Z,11.70
2019-05-06T06:20:47.803Z,11.70
2019-05-06T06:21:42.658Z,11.53
2019-05-06T06:22:19.989Z,11.70
2019-05-06T06:22:56.538Z,11.40
2019-05-06T06:23:36.815Z,11.57
2019-05-06T06:24:19.135Z,12.03
2019-05-06T06:24:54.429Z,11.13
2019-05-06T06:25:29.550Z,11.17
2019-05-06T06:26:04.675Z,10.93
2019-05-06T06:26:39.727Z,11.20
2019-05-06T06:27:14.766Z,11.53
2019-05-06T06:27:52.124Z,11.70
2019-05-06T06:28:27.202Z,11.53
2019-05-06T06:29:03.234Z,10.87
2019-05-06T06:29:38.775Z,11.17
2019-05-06T06:30:13.828Z,11.83
2019-05-06T06:30:58.370Z,11.20
2019-05-06T06:31:38.674Z,11.13
2019-05-06T06:32:23.040Z,11.93
2019-05-06T06:32:58.448Z,11.77
2019-05-06T06:33:33.499Z,11.30
2019-05-06T06:34:16.707Z,10.97
2019-05-06T06:35:10.746Z,11.37
2019-05-06T06:35:48.809Z,11.13
2019-05-06T06:36:45.483Z,10.80
2019-05-06T06:37:36.480Z,10.70
2019-05-06T06:38:16.446Z,10.67
2019-05-06T06:38:57.790Z,10.80
2019-05-06T06:39:37.658Z,10.93
2019-05-06T06:40:13.140Z,11.90
2019-05-06T06:40:48.470Z,10.73
2019-05-06T06:41:23.891Z,11.40
2019-05-06T06:41:58.980Z,11.73
2019-05-06T06:42:34.083Z,11.57
2019-05-06T06:43:14.010Z,11.00
2019-05-06T06:43:52.478Z,11.03
2019-05-06T06:44:30.162Z,11.23
2019-05-06T06:45:05.366Z,11.17
2019-05-06T06:45:42.145Z,11.70
2019-05-06T06:46:17.739Z,10.80
2019-05-06T06:46:53.217Z,10.87
2019-05-06T06:47:28.291Z,10.70
2019-05-06T06:48:03.325Z,11.13
2019-05-06T06:48:38.402Z,11.27
2019-05-06T06:49:13.726Z,10.90
2019-05-06T06:49:48.874Z,11.57
2019-05-06T06:50:23.956Z,11.47
2019-05-06T06:50:58.996Z,11.33
2019-05-06T06:51:34.052Z,11.60
2019-05-06T06:52:11.547Z,11.60
2019-05-06T06:52:45.838Z,11.40
2019-05-06T06:53:21.890Z,11.83
2019-05-06T06:53:57.592Z,11.00
2019-05-06T06:54:32.653Z,12.03
2019-05-06T06:55:08.341Z,11.13
2019-05-06T06:55:43.549Z,11.30
2019-05-06T06:56:43.475Z,11.40
2019-05-06T06:57:31.369Z,11.27
2019-05-06T06:58:14.647Z,11.17
2019-05-06T06:59:22.193Z,11.47
2019-05-06T07:00:26.426Z,11.33
2019-05-06T07:01:25.156Z,10.77
2019-05-06T07:02:19.400Z,11.23
2019-05-06T07:03:04.770Z,12.00
2019-05-06T07:03:43.994Z,11.03
2019-05-06T07:04:25.115Z,11.60
2019-05-06T07:05:28.448Z,11.63
2019-05-06T07:06:09.293Z,10.97
2019-05-06T07:06:47.150Z,10.93
2019-05-06T07:07:24.199Z,11.40
2019-05-06T07:07:59.338Z,11.83
2019-05-06T07:08:37.588Z,11.20
2019-05-06T07:09:12.541Z,11.23
2019-05-06T07:09:47.751Z,11.77
2019-05-06T07:10:42.448Z,12.07
2019-05-06T07:11:17.267Z,11.87
2019-05-06T07:11:52.706Z,11.77
2019-05-06T07:12:29.659Z,12.27
2019-05-06T07:13:04.792Z,12.30
2019-05-06T07:13:43.258Z,12.37
2019-05-06T07:14:18.330Z,12.13
2019-05-06T07:15:02.273Z,12.70
2019-05-06T07:15:36.886Z,12.40
2019-05-06T07:16:12.341Z,12.07
2019-05-06T07:16:47.567Z,11.50
2019-05-06T07:17:22.977Z,12.10
2019-05-06T07:17:58.022Z,12.50
2019-05-06T07:18:33.266Z,11.70
2019-05-06T07:19:08.527Z,12.37
2019-05-06T07:19:49.216Z,12.50
2019-05-06T07:20:26.433Z,11.97
2019-05-06T07:21:16.004Z,13.50
2019-05-06T07:21:54.331Z,13.07
2019-05-06T07:22:36.334Z,12.07
2019-05-06T07:23:24.151Z,11.70
2019-05-06T07:24:02.153Z,13.20
2019-05-06T07:24:37.615Z,12.90
2019-05-06T07:25:12.944Z,12.33
2019-05-06T07:25:48.063Z,12.37
2019-05-06T07:26:25.721Z,12.67
2019-05-06T07:27:07.360Z,12.60
2019-05-06T07:27:42.815Z,12.03
2019-05-06T07:28:17.859Z,12.13
2019-05-06T07:28:52.956Z,12.57
2019-05-06T07:29:28.454Z,11.80
2019-05-06T07:30:04.123Z,13.07
2019-05-06T07:30:41.953Z,12.87
2019-05-06T07:31:22.382Z,12.53
2019-05-06T07:31:53.955Z,12.67
2019-05-06T07:32:29.083Z,12.30
2019-05-06T07:33:04.127Z,12.43
2019-05-06T07:33:39.362Z,13.00
2019-05-06T07:34:14.395Z,12.63
2019-05-06T07:34:49.471Z,12.97
2019-05-06T07:35:37.618Z,12.53
2019-05-06T07:36:02.163Z,12.07
2019-05-06T07:36:37.715Z,12.00
2019-05-06T07:37:12.859Z,12.77
2019-05-06T07:37:47.897Z,11.53
2019-05-06T07:38:23.406Z,11.97
2019-05-06T07:38:59.009Z,13.00
2019-05-06T07:39:34.052Z,11.80
2019-05-06T07:40:09.179Z,11.70
2019-05-06T07:40:46.423Z,12.27
2019-05-06T07:41:37.144Z,12.40
2019-05-06T07:42:16.862Z,11.63
2019-05-06T07:42:53.051Z,11.87
2019-05-06T07:43:42.137Z,11.83
2019-05-06T07:44:34.982Z,12.17
2019-05-06T07:45:38.308Z,12.37
2019-05-06T07:46:23.375Z,11.50
2019-05-06T07:47:19.663Z,12.40
2019-05-06T07:48:05.197Z,12.13
2019-05-06T07:48:42.752Z,11.93
2019-05-06T07:49:17.302Z,11.67
2019-05-06T07:49:53.141Z,11.63
2019-05-06T07:50:28.682Z,11.47
2019-05-06T07:51:04.051Z,11.50
2019-05-06T07:51:39.115Z,12.00
2019-05-06T07:52:17.035Z,11.33
2019-05-06T07:53:08.191Z,11.93
2019-05-06T07:53:43.235Z,11.63
2019-05-06T07:54:18.303Z,12.13
2019-05-06T07:54:53.505Z,12.17
2019-05-06T07:55:29.332Z,11.37
2019-05-06T07:56:04.399Z,10.87
2019-05-06T07:56:39.455Z,11.43
2019-05-06T07:57:14.508Z,11.57
2019-05-06T07:57:50.587Z,11.90
2019-05-06T07:58:27.606Z,11.93
2019-05-06T07:59:08.519Z,13.13
2019-05-06T07:59:43.623Z,11.73
2019-05-06T08:00:18.755Z,12.10
2019-05-06T08:00:54.117Z,11.90
2019-05-06T08:01:29.534Z,11.70
2019-05-06T08:02:04.660Z,11.47
2019-05-06T08:02:40.038Z,11.77
2019-05-06T08:03:15.075Z,11.70
2019-05-06T08:03:50.135Z,11.27
2019-05-06T08:04:25.423Z,11.40
2019-05-06T08:05:02.514Z,11.10
2019-05-06T08:05:37.219Z,11.13
2019-05-06T08:06:13.286Z,11.40
2019-05-06T08:06:48.878Z,10.77
2019-05-06T08:07:24.607Z,10.67
2019-05-06T08:07:59.650Z,10.50
2019-05-06T08:08:34.698Z,10.10
2019-05-06T08:09:12.727Z,10.17
2019-05-06T08:09:47.090Z,10.67
2019-05-06T08:10:22.480Z,10.63
2019-05-06T08:10:57.883Z,10.50
2019-05-06T08:11:32.971Z,10.50
2019-05-06T08:12:08.363Z,10.57
2019-05-06T08:12:43.431Z,10.40
2019-05-06T08:13:18.573Z,11.40
2019-05-06T08:13:54.856Z,10.77
2019-05-06T08:14:43.156Z,10.23
2019-05-06T08:15:18.728Z,11.10
2019-05-06T08:15:53.864Z,10.23
2019-05-06T08:16:31.923Z,10.57
2019-05-06T08:17:07.479Z,10.13
2019-05-06T08:17:42.797Z,10.03
2019-05-06T08:18:18.175Z,10.23
2019-05-06T08:18:53.547Z,9.97
2019-05-06T08:19:28.608Z,10.83
2019-05-06T08:20:04.097Z,10.67
2019-05-06T08:20:39.388Z,9.90
2019-05-06T08:21:19.510Z,9.90
2019-05-06T08:21:56.271Z,10.10
2019-05-06T08:22:49.063Z,10.13
2019-05-06T08:23:42.818Z,9.87
2019-05-06T08:24:17.936Z,9.63
2019-05-06T08:24:53.424Z,10.60
2019-05-06T08:25:37.467Z,10.17
2019-05-06T08:26:16.618Z,9.50
2019-05-06T08:26:49.463Z,9.63
2019-05-06T08:27:24.522Z,9.87
2019-05-06T08:27:59.588Z,8.50
2019-05-06T08:28:40.685Z,9.10
2019-05-06T08:29:12.574Z,8.67
2019-05-06T08:29:48.607Z,8.73
2019-05-06T08:30:24.646Z,8.87
2019-05-06T08:31:02.240Z,8.67
2019-05-06T08:31:37.163Z,9.07
2019-05-06T08:32:12.372Z,8.90
2019-05-06T08:32:47.700Z,8.93
2019-05-06T08:33:22.755Z,9.60
2019-05-06T08:33:57.798Z,8.67
2019-05-06T08:34:34.254Z,8.93
2019-05-06T08:35:10.067Z,9.13
2019-05-06T08:35:45.222Z,8.90
2019-05-06T08:36:28.254Z,8.53
2019-05-06T08:37:27.305Z,7.80
2019-05-06T08:38:02.476Z,8.20
2019-05-06T08:38:57.568Z,8.10
2019-05-06T08:39:33.683Z,7.83
2019-05-06T08:40:08.801Z,7.50
2019-05-06T08:40:43.838Z,7.73
2019-05-06T08:41:19.212Z,7.13
2019-05-06T08:41:54.964Z,7.00
2019-05-06T08:42:30.097Z,6.90
2019-05-06T08:43:13.102Z,7.30
2019-05-06T08:43:48.367Z,7.63
2019-05-06T08:44:23.847Z,7.37
2019-05-06T08:44:58.877Z,7.67
2019-05-06T08:45:34.009Z,7.63
2019-05-06T08:46:09.367Z,8.30
2019-05-06T08:46:44.431Z,7.60
2019-05-06T08:47:19.603Z,7.30
2019-05-06T08:47:54.662Z,7.57
2019-05-06T08:48:30.008Z,7.07
2019-05-06T08:49:05.063Z,7.50
2019-05-06T08:50:05.159Z,7.87
2019-05-06T08:50:52.907Z,7.83
2019-05-06T08:52:03.829Z,7.93
2019-05-06T08:53:00.439Z,7.77
2019-05-06T08:53:39.005Z,7.90
2019-05-06T08:54:22.551Z,8.00
2019-05-06T08:54:58.407Z,8.23
2019-05-06T08:55:36.010Z,7.90
2019-05-06T08:56:16.378Z,8.00
2019-05-06T08:56:52.316Z,7.73
2019-05-06T08:57:27.718Z,7.30
2019-05-06T08:58:03.032Z,7.83
2019-05-06T08:58:46.237Z,7.70
2019-05-06T08:59:23.836Z,7.70
2019-05-06T08:59:58.363Z,8.03
2019-05-06T09:00:35.292Z,7.67
2019-05-06T09:01:12.508Z,7.33
2019-05-06T09:01:49.498Z,7.97
2019-05-06T09:02:24.527Z,7.58
2019-05-06T09:02:59.604Z,7.53
2019-05-06T09:03:34.663Z,7.45
2019-05-06T09:04:15.256Z,7.20
2019-05-06T09:04:46.491Z,7.28
2019-05-06T09:05:22.305Z,7.12
2019-05-06T09:05:57.470Z,7.10
2019-05-06T09:06:34.342Z,7.35
2019-05-06T09:07:09.506Z,6.53
2019-05-06T09:07:46.186Z,7.62
2019-05-06T09:08:23.254Z,6.70
2019-05-06T09:08:58.381Z,7.33
2019-05-06T09:09:33.403Z,7.10
2019-05-06T09:10:08.465Z,7.45
2019-05-06T09:10:43.583Z,7.47
2019-05-06T09:11:18.625Z,6.70
2019-05-06T09:11:53.773Z,7.60
2019-05-06T09:12:28.960Z,7.28
2019-05-06T09:13:04.128Z,7.60
2019-05-06T09:13:39.200Z,7.43
2019-05-06T09:14:14.367Z,7.58
2019-05-06T09:14:49.434Z,7.67
2019-05-06T09:15:24.454Z,8.00
2019-05-06T09:15:59.520Z,7.63
2019-05-06T09:16:34.580Z,7.80
2019-05-06T09:17:11.911Z,7.83
2019-05-06T09:17:46.416Z,7.27
2019-05-06T09:18:23.876Z,7.33
2019-05-06T09:18:58.245Z,7.27
2019-05-06T09:19:33.396Z,7.70
2019-05-06T09:20:08.531Z,7.40
2019-05-06T09:20:44.270Z,7.00
2019-05-06T09:21:19.308Z,7.00
2019-05-06T09:21:54.351Z,7.00
2019-05-06T09:22:29.402Z,7.60
2019-05-06T09:23:04.864Z,7.47
2019-05-06T09:23:42.212Z,7.27
2019-05-06T09:24:17.163Z,7.13
2019-05-06T09:24:53.100Z,7.77
2019-05-06T09:25:28.310Z,8.20
2019-05-06T09:26:05.023Z,7.07
2019-05-06T09:26:44.454Z,8.13
2019-05-06T09:27:42.195Z,7.37
2019-05-06T09:28:42.795Z,7.03
2019-05-06T09:29:23.168Z,7.70
2019-05-06T09:30:08.635Z,7.60
2019-05-06T09:30:53.175Z,7.23
2019-05-06T09:31:33.626Z,7.53
2019-05-06T09:32:13.912Z,7.30
2019-05-06T09:32:49.186Z,7.43
2019-05-06T09:33:29.732Z,6.90
2019-05-06T09:34:13.055Z,7.57
2019-05-06T09:34:52.765Z,7.80
2019-05-06T09:35:27.435Z,7.63
2019-05-06T09:36:03.298Z,7.93
2019-05-06T09:36:43.685Z,7.77
2019-05-06T09:37:17.448Z,7.70
2019-05-06T09:37:53.465Z,7.28
2019-05-06T09:38:32.170Z,7.97
2019-05-06T09:39:07.988Z,7.97
2019-05-06T09:39:44.139Z,7.87
2019-05-06T09:40:19.247Z,8.00
2019-05-06T09:40:54.347Z,7.53
2019-05-06T09:41:32.336Z,7.60
2019-05-06T09:42:06.658Z,7.70
2019-05-06T09:42:42.542Z,7.50
2019-05-06T09:43:17.845Z,9.00
2019-05-06T09:43:53.160Z,7.47
2019-05-06T09:44:28.210Z,7.73
2019-05-06T09:45:03.247Z,8.17
2019-05-06T09:45:38.379Z,7.90
2019-05-06T09:46:13.755Z,8.23
2019-05-06T09:46:48.808Z,8.00
2019-05-06T09:47:42.566Z,8.10
2019-05-06T09:48:33.197Z,8.30
2019-05-06T09:49:16.088Z,8.20
2019-05-06T09:49:53.079Z,7.90
2019-05-06T09:50:36.682Z,7.77
2019-05-06T09:51:13.081Z,8.40
2019-05-06T09:51:49.263Z,8.17
2019-05-06T09:52:24.647Z,8.33
2019-05-06T09:53:01.919Z,8.37
2019-05-06T09:53:55.523Z,7.97
2019-05-06T09:54:44.208Z,8.50
2019-05-06T09:55:43.133Z,8.03
2019-05-06T09:56:25.918Z,7.43
2019-05-06T09:57:08.447Z,7.70
2019-05-06T09:58:03.209Z,7.73
2019-05-06T09:58:42.860Z,7.93
2019-05-06T09:59:17.259Z,8.13
2019-05-06T09:59:53.387Z,8.17
2019-05-06T10:00:29.461Z,7.63
2019-05-06T10:01:04.587Z,7.27
2019-05-06T10:01:39.740Z,8.00
2019-05-06T10:02:14.797Z,7.30
2019-05-06T10:02:52.570Z,7.27
2019-05-06T10:03:26.906Z,7.40
2019-05-06T10:04:06.916Z,7.40
2019-05-06T10:04:42.834Z,7.03
2019-05-06T10:05:18.139Z,7.87
2019-05-06T10:05:53.259Z,7.23
2019-05-06T10:06:28.340Z,7.50
2019-05-06T10:07:03.483Z,7.60
2019-05-06T10:07:38.519Z,6.83
2019-05-06T10:08:13.726Z,7.47
2019-05-06T10:08:48.762Z,7.10
2019-05-06T10:09:24.975Z,7.50
2019-05-06T10:10:00.179Z,7.20
2019-05-06T10:10:35.551Z,7.73
2019-05-06T10:11:10.635Z,7.43
2019-05-06T10:11:45.949Z,7.50
2019-05-06T10:12:21.010Z,7.73
2019-05-06T10:12:56.879Z,7.63
2019-05-06T10:13:32.772Z,7.60
2019-05-06T10:14:09.087Z,7.67
2019-05-06T10:14:44.177Z,7.27
2019-05-06T10:15:19.305Z,7.47
2019-05-06T10:15:57.389Z,7.80
2019-05-06T10:16:32.501Z,7.30
2019-05-06T10:17:07.729Z,7.57
2019-05-06T10:17:42.943Z,6.67
2019-05-06T10:18:18.165Z,6.73
2019-05-06T10:18:53.206Z,7.30
2019-05-06T10:19:29.624Z,7.30
2019-05-06T10:20:05.279Z,7.23
2019-05-06T10:20:43.342Z,7.07
2019-05-06T10:21:18.983Z,7.13
2019-05-06T10:21:54.048Z,7.77
2019-05-06T10:22:29.095Z,7.03
2019-05-06T10:23:05.343Z,6.80
2019-05-06T10:23:42.344Z,7.45
2019-05-06T10:24:17.192Z,7.70
2019-05-06T10:24:52.376Z,7.27
2019-05-06T10:25:27.606Z,7.13
2019-05-06T10:26:04.549Z,7.83
2019-05-06T10:26:44.642Z,7.33
2019-05-06T10:27:19.804Z,6.93
2019-05-06T10:27:57.325Z,6.90
2019-05-06T10:28:40.475Z,7.10
2019-05-06T10:29:22.393Z,7.43
2019-05-06T10:30:03.955Z,7.30
2019-05-06T10:30:40.678Z,7.33
2019-05-06T10:31:16.955Z,7.20
2019-05-06T10:32:01.991Z,7.53
2019-05-06T10:32:56.268Z,7.30
2019-05-06T10:33:32.511Z,7.70
2019-05-06T10:34:13.919Z,8.70
2019-05-06T10:34:48.613Z,8.27
2019-05-06T10:35:26.827Z,9.20
2019-05-06T10:36:04.375Z,8.40
2019-05-06T10:36:48.635Z,8.33
2019-05-06T10:37:44.308Z,9.23
2019-05-06T10:38:43.251Z,8.70
2019-05-06T10:39:18.846Z,9.00
2019-05-06T10:40:03.202Z,9.18
2019-05-06T10:40:56.061Z,9.20
2019-05-06T10:41:18.902Z,8.50
2019-05-06T10:42:13.065Z,9.60
2019-05-06T10:42:54.510Z,9.00
2019-05-06T10:43:52.597Z,8.90
2019-05-06T10:44:42.852Z,9.63
2019-05-06T10:45:27.936Z,9.87
2019-05-06T10:46:04.182Z,10.03
2019-05-06T10:46:39.440Z,9.10
2019-05-06T10:47:15.082Z,9.73
2019-05-06T10:47:50.139Z,9.53
2019-05-06T10:48:25.198Z,9.80
2019-05-06T10:49:02.447Z,9.47
2019-05-06T10:49:37.390Z,9.40
2019-05-06T10:50:12.751Z,10.17
2019-05-06T10:50:52.169Z,9.17
2019-05-06T10:51:34.802Z,9.00
2019-05-06T10:52:14.936Z,10.13
2019-05-06T10:53:07.717Z,9.47
2019-05-06T10:53:43.023Z,10.13
2019-05-06T10:54:18.075Z,9.67
2019-05-06T10:54:53.147Z,9.60
2019-05-06T10:55:28.219Z,10.20
2019-05-06T10:56:23.083Z,9.60
2019-05-06T10:57:12.527Z,9.50
2019-05-06T10:57:47.878Z,10.03
2019-05-06T10:58:23.283Z,9.93
2019-05-06T10:58:58.346Z,9.63
2019-05-06T10:59:33.703Z,9.97
2019-05-06T11:00:12.114Z,9.43
2019-05-06T11:00:47.646Z,10.00
2019-05-06T11:01:28.313Z,10.17
2019-05-06T11:02:23.261Z,10.30
2019-05-06T11:03:14.734Z,10.50
2019-05-06T11:03:48.502Z,10.23
2019-05-06T11:04:23.552Z,10.73
2019-05-06T11:04:58.931Z,10.77
2019-05-06T11:05:33.983Z,10.77
2019-05-06T11:06:09.014Z,11.40
2019-05-06T11:06:44.093Z,10.90
2019-05-06T11:07:29.346Z,11.43
2019-05-06T11:07:56.283Z,12.53
2019-05-06T11:08:32.623Z,12.23
2019-05-06T11:09:08.495Z,11.57
2019-05-06T11:09:43.655Z,12.17
2019-05-06T11:10:26.924Z,12.67
2019-05-06T11:10:56.033Z,12.20
2019-05-06T11:11:37.919Z,13.23
2019-05-06T11:12:08.091Z,13.03
2019-05-06T11:12:43.233Z,12.67
2019-05-06T11:13:18.384Z,12.97
2019-05-06T11:13:53.452Z,12.73
2019-05-06T11:14:29.489Z,12.60
2019-05-06T11:15:04.924Z,12.70
2019-05-06T11:15:39.975Z,13.18
2019-05-06T11:16:16.948Z,13.10
2019-05-06T11:16:52.207Z,14.23
2019-05-06T11:17:29.518Z,13.30
2019-05-06T11:18:04.968Z,13.47
2019-05-06T11:18:42.407Z,13.90
2019-05-06T11:19:16.974Z,13.43
2019-05-06T11:19:53.333Z,13.70
2019-05-06T11:20:28.479Z,13.40
2019-05-06T11:21:03.847Z,13.37
2019-05-06T11:21:38.896Z,13.58
2019-05-06T11:22:13.951Z,13.90
2019-05-06T11:22:49.039Z,13.72
2019-05-06T11:23:26.190Z,13.58
2019-05-06T11:24:01.271Z,14.07
2019-05-06T11:24:36.355Z,14.07
2019-05-06T11:25:12.333Z,14.17
2019-05-06T11:25:47.463Z,13.83
2019-05-06T11:26:23.708Z,13.87
2019-05-06T11:26:58.948Z,14.03
2019-05-06T11:27:37.545Z,14.75
2019-05-06T11:28:28.528Z,13.93
2019-05-06T11:29:08.314Z,14.40
2019-05-06T11:29:44.291Z,14.43
2019-05-06T11:30:42.521Z,14.33
2019-05-06T11:31:25.483Z,14.40
2019-05-06T11:32:23.723Z,14.60
2019-05-06T11:33:04.715Z,14.87
2019-05-06T11:33:48.316Z,15.03
2019-05-06T11:34:45.333Z,15.43
2019-05-06T11:35:32.860Z,15.70
2019-05-06T11:36:32.342Z,16.37
2019-05-06T11:37:50.186Z,16.57
2019-05-06T11:38:22.817Z,16.53
2019-05-06T11:38:57.990Z,16.77
2019-05-06T11:39:33.542Z,16.77
2019-05-06T11:40:08.854Z,16.20
2019-05-06T11:40:45.938Z,17.17
2019-05-06T11:41:23.327Z,15.97
2019-05-06T11:42:15.299Z,15.47
2019-05-06T11:42:35.951Z,16.57
2019-05-06T11:43:11.958Z,16.30
2019-05-06T11:43:47.847Z,17.67
2019-05-06T11:44:23.927Z,16.10
2019-05-06T11:44:59.251Z,15.63
2019-05-06T11:45:34.282Z,16.30
2019-05-06T11:46:09.355Z,16.30
2019-05-06T11:46:44.407Z,16.00
2019-05-06T11:47:23.076Z,16.47
2019-05-06T11:47:57.342Z,16.10
2019-05-06T11:48:32.936Z,16.50
2019-05-06T11:49:08.132Z,16.00
2019-05-06T11:49:44.102Z,16.40
2019-05-06T11:50:19.366Z,17.73
2019-05-06T11:50:57.630Z,16.00
2019-05-06T11:51:33.087Z,15.57
2019-05-06T11:52:08.294Z,16.27
2019-05-06T11:52:43.720Z,16.33
2019-05-06T11:53:18.778Z,15.40
2019-05-06T11:53:54.141Z,16.50
2019-05-06T11:54:29.687Z,15.67
2019-05-06T11:55:05.747Z,16.13
2019-05-06T11:55:40.808Z,15.77
2019-05-06T11:56:16.141Z,15.13
2019-05-06T11:56:56.186Z,15.53
2019-05-06T11:57:28.031Z,15.10
2019-05-06T11:58:03.368Z,15.63
2019-05-06T11:58:48.086Z,14.77
2019-05-06T11:59:24.167Z,15.13
2019-05-06T11:59:59.222Z,14.83
2019-05-06T12:00:38.883Z,14.97
2019-05-06T12:01:20.781Z,14.77
2019-05-06T12:02:02.530Z,14.77
2019-05-06T12:02:37.936Z,15.23
2019-05-06T12:03:13.016Z,14.57
2019-05-06T12:03:49.129Z,14.93
2019-05-06T12:04:24.519Z,14.13
2019-05-06T12:04:59.602Z,14.17
2019-05-06T12:05:34.647Z,14.90
2019-05-06T12:06:09.743Z,13.83
2019-05-06T12:06:44.808Z,14.50
2019-05-06T12:07:19.893Z,13.53
2019-05-06T12:08:04.524Z,13.83
2019-05-06T12:08:32.662Z,14.43
2019-05-06T12:09:13.038Z,14.27
2019-05-06T12:09:46.180Z,13.60
2019-05-06T12:10:22.481Z,13.70
2019-05-06T12:10:57.861Z,13.53
2019-05-06T12:11:33.023Z,13.27
2019-05-06T12:12:08.095Z,12.97
2019-05-06T12:12:43.190Z,13.60
2019-05-06T12:13:18.343Z,13.00
2019-05-06T12:13:53.704Z,12.30
2019-05-06T12:14:28.743Z,13.17
2019-05-06T12:15:07.101Z,12.13
2019-05-06T12:15:42.013Z,11.80
2019-05-06T12:16:17.309Z,11.97
2019-05-06T12:16:55.098Z,12.83
2019-05-06T12:17:29.134Z,11.87
2019-05-06T12:18:04.248Z,11.83
2019-05-06T12:18:42.094Z,12.33
2019-05-06T12:19:23.540Z,12.03
2019-05-06T12:19:58.934Z,11.70
2019-05-06T12:20:34.060Z,11.37
2019-05-06T12:21:14.604Z,11.83
2019-05-06T12:21:47.998Z,11.33
2019-05-06T12:22:26.833Z,11.13
2019-05-06T12:23:04.425Z,11.87
2019-05-06T12:23:39.229Z,11.35
2019-05-06T12:24:14.362Z,10.80
2019-05-06T12:24:52.342Z,11.10
2019-05-06T12:25:27.053Z,10.38
2019-05-06T12:26:02.613Z,11.03
2019-05-06T12:26:42.809Z,10.43
2019-05-06T12:27:36.669Z,10.67
2019-05-06T12:28:12.381Z,10.67
2019-05-06T12:28:48.850Z,10.53
2019-05-06T12:29:23.928Z,10.10
2019-05-06T12:29:58.980Z,10.53
2019-05-06T12:30:34.362Z,9.83
2019-05-06T12:31:09.387Z,9.68
2019-05-06T12:31:46.693Z,10.53
2019-05-06T12:32:33.009Z,9.63
2019-05-06T12:33:33.085Z,10.15
2019-05-06T12:34:11.437Z,9.80
2019-05-06T12:34:45.517Z,10.32
2019-05-06T12:35:20.607Z,10.00
2019-05-06T12:35:56.278Z,9.58
2019-05-06T12:36:32.541Z,10.50
2019-05-06T12:37:11.681Z,9.65
2019-05-06T12:37:48.021Z,10.32
2019-05-06T12:38:30.978Z,9.48
2019-05-06T12:39:27.495Z,9.80
2019-05-06T12:40:03.431Z,9.25
2019-05-06T12:40:38.820Z,9.60
2019-05-06T12:41:14.151Z,9.80
2019-05-06T12:42:14.350Z,9.55
2019-05-06T12:42:53.600Z,9.83
2019-05-06T12:43:47.682Z,9.38
2019-05-06T12:44:25.726Z,8.98
2019-05-06T12:45:07.641Z,9.80
2019-05-06T12:45:44.872Z,9.05
2019-05-06T12:46:24.052Z,8.63
2019-05-06T12:47:09.250Z,8.48
2019-05-06T12:47:49.302Z,8.50
2019-05-06T12:48:27.184Z,8.88
2019-05-06T12:49:03.129Z,8.43
2019-05-06T12:49:39.455Z,8.40
2019-05-06T12:50:14.746Z,7.50
2019-05-06T12:50:52.338Z,8.60
2019-05-06T12:51:26.529Z,7.72
2019-05-06T12:52:01.649Z,8.20
2019-05-06T12:52:36.696Z,8.13
2019-05-06T12:53:13.265Z,7.70
2019-05-06T12:53:49.527Z,8.23
2019-05-06T12:54:24.799Z,7.37
2019-05-06T12:55:16.394Z,8.25
2019-05-06T12:55:37.263Z,7.80
2019-05-06T12:56:12.500Z,7.90
2019-05-06T12:56:48.611Z,7.75
2019-05-06T12:57:25.207Z,7.47
2019-05-06T12:58:00.339Z,7.83
2019-05-06T12:58:35.639Z,7.50
2019-05-06T12:59:12.739Z,7.35
2019-05-06T12:59:48.048Z,7.87
2019-05-06T13:00:23.739Z,7.60
2019-05-06T13:00:59.037Z,7.17
2019-05-06T13:01:34.395Z,7.42
2019-05-06T13:02:12.948Z,7.37
2019-05-06T13:02:47.392Z,6.97
2019-05-06T13:03:23.477Z,6.97
2019-05-06T13:03:58.687Z,6.40
2019-05-06T13:04:50.253Z,7.00
2019-05-06T13:05:12.644Z,6.55
2019-05-06T13:05:47.491Z,6.25
2019-05-06T13:06:26.267Z,6.97
2019-05-06T13:06:59.291Z,6.53
2019-05-06T13:07:42.034Z,6.33
2019-05-06T13:08:20.060Z,6.80
2019-05-06T13:09:01.376Z,6.53
2019-05-06T13:09:33.127Z,6.37
2019-05-06T13:10:08.468Z,6.55
2019-05-06T13:10:43.610Z,6.65
2019-05-06T13:11:18.931Z,6.97
2019-05-06T13:11:53.986Z,6.95
2019-05-06T13:12:30.384Z,6.55
2019-05-06T13:13:05.415Z,6.67
2019-05-06T13:13:55.627Z,6.25
2019-05-06T13:14:18.238Z,6.50
2019-05-06T13:14:53.270Z,6.75
2019-05-06T13:15:28.375Z,7.20
2019-05-06T13:16:03.793Z,6.28
2019-05-06T13:16:39.159Z,6.90
2019-05-06T13:17:15.874Z,6.30
2019-05-06T13:17:53.010Z,6.25
2019-05-06T13:18:28.247Z,6.92
2019-05-06T13:19:03.667Z,6.53
2019-05-06T13:19:39.206Z,6.83
2019-05-06T13:20:14.955Z,6.40
2019-05-06T13:20:51.993Z,6.92
2019-05-06T13:21:26.983Z,6.35
2019-05-06T13:22:03.577Z,6.37
2019-05-06T13:22:43.355Z,6.17
2019-05-06T13:23:35.804Z,6.80
2019-05-06T13:24:12.104Z,7.83
2019-05-06T13:24:52.032Z,7.45
2019-05-06T13:25:27.247Z,7.42
2019-05-06T13:26:02.293Z,7.03
2019-05-06T13:26:37.519Z,7.10
2019-05-06T13:27:14.238Z,7.10
2019-05-06T13:27:49.446Z,7.15
2019-05-06T13:28:25.955Z,6.70
2019-05-06T13:29:05.266Z,6.65
2019-05-06T13:29:42.742Z,6.12
2019-05-06T13:30:17.389Z,6.33
2019-05-06T13:30:53.149Z,6.95
2019-05-06T13:31:28.444Z,6.58
2019-05-06T13:32:03.465Z,6.67
2019-05-06T13:32:42.582Z,5.92
2019-05-06T13:33:43.373Z,5.78
2019-05-06T13:34:19.986Z,6.78
2019-05-06T13:34:55.207Z,6.53
2019-05-06T13:35:32.578Z,6.15
2019-05-06T13:36:07.016Z,6.78
2019-05-06T13:36:43.022Z,6.35
2019-05-06T13:37:18.202Z,6.72
2019-05-06T13:37:53.414Z,6.10
2019-05-06T13:38:31.974Z,6.60
2019-05-06T13:39:13.841Z,7.47
2019-05-06T13:39:43.862Z,6.67
2019-05-06T13:40:20.069Z,6.60
2019-05-06T13:40:57.618Z,7.60
2019-05-06T13:41:32.748Z,7.50
2019-05-06T13:42:08.345Z,7.47
2019-05-06T13:43:00.842Z,7.05
2019-05-06T13:43:39.802Z,7.40
2019-05-06T13:44:19.733Z,7.55
2019-05-06T13:44:55.188Z,7.92
2019-05-06T13:45:33.317Z,7.58
2019-05-06T13:46:16.759Z,7.15
2019-05-06T13:46:53.648Z,6.92
2019-05-06T13:48:00.380Z,7.50
2019-05-06T13:48:39.226Z,7.87
2019-05-06T13:49:43.009Z,7.92
2019-05-06T13:50:20.290Z,7.83
2019-05-06T13:50:57.785Z,7.67
2019-05-06T13:51:33.263Z,8.20
2019-05-06T13:52:12.708Z,8.10
2019-05-06T13:52:49.087Z,7.95
2019-05-06T13:53:38.524Z,8.03
2019-05-06T13:54:02.604Z,8.18
2019-05-06T13:54:38.063Z,8.18
2019-05-06T13:55:13.160Z,8.60
2019-05-06T13:55:48.594Z,8.75